KSPG/SPG METAR and TAF weather

Enter ICAO airport designator
Station Type Date Time Source
KSPG METAR 2020/06/06 01:53 UTC NOAA

KSPG 060153Z AUTO 10013KT 10SM FEW008 24/23 A3000 RMK AO2 RAE33 SLP159 P0002 T02440233 $


Station Type Date Time Source
KSPG Decoded METAR 2020/06/06 01:53 UTC NOAA

ST PETERSBURG WHITTED AIRPORT , FL, United States (KSPG) 27-46N 082-38W 2M
Jun 05, 2020 - 09:53 PM EDT / 2020.06.06 0153 UTC
Wind: from the E (100 degrees) at 15 MPH (13 KT):0
Visibility: 10 mile(s):0
Sky conditions: mostly clear
Precipitation last hour: 0.02 inches
Temperature: 75.9 F (24.4 C)
Dew Point: 73.9 F (23.3 C)
Relative Humidity: 93%
Pressure (altimeter): 30 in. Hg (1015 hPa)
ob: KSPG 060153Z AUTO 10013KT 10SM FEW008 24/23 A3000 RMK AO2 RAE33 SLP159 P0002 T02440233
cycle: 2

Station Type Date Time Source
KSPG TAF UTC NOAA

Error!

Example: see airport list